sensor_id;sensor_type;location;lat;lon;timestamp;P1;durP1;ratioP1;P2;durP2;ratioP2
19830;SDS011;10076;52.008;4.708;2023-04-15T00:00:33;7.30;;;2.70;;
19830;SDS011;10076;52.008;4.708;2023-04-15T00:02:59;7.67;;;2.70;;
19830;SDS011;10076;52.008;4.708;2023-04-15T00:05:26;8.23;;;2.80;;
19830;SDS011;10076;52.008;4.708;2023-04-15T00:07:51;5.63;;;2.77;;
19830;SDS011;10076;52.008;4.708;2023-04-15T00:10:17;5.27;;;2.97;;
19830;SDS011;10076;52.008;4.708;2023-04-15T00:12:43;3.00;;;2.63;;
19830;SDS011;10076;52.008;4.708;2023-04-15T00:15:08;4.27;;;2.90;;
19830;SDS011;10076;52.008;4.708;2023-04-15T00:17:34;6.37;;;3.13;;
19830;SDS011;10076;52.008;4.708;2023-04-15T00:20:00;6.43;;;3.23;;
19830;SDS011;10076;52.008;4.708;2023-04-15T00:22:25;7.57;;;3.30;;
19830;SDS011;10076;52.008;4.708;2023-04-15T00:24:54;4.50;;;2.73;;
19830;SDS011;10076;52.008;4.708;2023-04-15T00:27:19;4.80;;;3.13;;
19830;SDS011;10076;52.008;4.708;2023-04-15T00:29:45;4.10;;;3.10;;
19830;SDS011;10076;52.008;4.708;2023-04-15T00:32:10;6.37;;;2.90;;
19830;SDS011;10076;52.008;4.708;2023-04-15T00:34:36;7.03;;;3.03;;
19830;SDS011;10076;52.008;4.708;2023-04-15T00:37:01;4.93;;;3.27;;
19830;SDS011;10076;52.008;4.708;2023-04-15T00:39:27;5.10;;;2.97;;
19830;SDS011;10076;52.008;4.708;2023-04-15T00:41:52;4.27;;;3.10;;
19830;SDS011;10076;52.008;4.708;2023-04-15T00:44:18;8.20;;;3.20;;
19830;SDS011;10076;52.008;4.708;2023-04-15T00:46:43;5.20;;;3.33;;
19830;SDS011;10076;52.008;4.708;2023-04-15T00:49:10;4.63;;;3.13;;
19830;SDS011;10076;52.008;4.708;2023-04-15T00:51:37;6.17;;;3.17;;
19830;SDS011;10076;52.008;4.708;2023-04-15T00:54:02;6.47;;;3.17;;
19830;SDS011;10076;52.008;4.708;2023-04-15T00:56:28;5.80;;;2.93;;
19830;SDS011;10076;52.008;4.708;2023-04-15T00:58:54;3.47;;;2.77;;
19830;SDS011;10076;52.008;4.708;2023-04-15T01:01:20;5.27;;;3.40;;
19830;SDS011;10076;52.008;4.708;2023-04-15T01:03:49;6.07;;;3.10;;
19830;SDS011;10076;52.008;4.708;2023-04-15T01:06:15;9.13;;;3.47;;
19830;SDS011;10076;52.008;4.708;2023-04-15T01:08:41;7.60;;;3.33;;
19830;SDS011;10076;52.008;4.708;2023-04-15T01:11:07;4.20;;;2.70;;
19830;SDS011;10076;52.008;4.708;2023-04-15T01:13:33;4.87;;;3.10;;
19830;SDS011;10076;52.008;4.708;2023-04-15T01:16:00;5.97;;;3.30;;
19830;SDS011;10076;52.008;4.708;2023-04-15T01:18:26;8.27;;;3.17;;
19830;SDS011;10076;52.008;4.708;2023-04-15T01:20:52;4.43;;;2.90;;
19830;SDS011;10076;52.008;4.708;2023-04-15T01:23:18;5.77;;;2.80;;
19830;SDS011;10076;52.008;4.708;2023-04-15T01:25:46;5.57;;;3.60;;
19830;SDS011;10076;52.008;4.708;2023-04-15T01:28:13;6.30;;;3.50;;
19830;SDS011;10076;52.008;4.708;2023-04-15T01:30:38;5.30;;;2.90;;
19830;SDS011;10076;52.008;4.708;2023-04-15T01:33:04;6.97;;;3.60;;
19830;SDS011;10076;52.008;4.708;2023-04-15T01:35:29;4.07;;;2.53;;
19830;SDS011;10076;52.008;4.708;2023-04-15T01:37:54;4.63;;;3.40;;
19830;SDS011;10076;52.008;4.708;2023-04-15T01:40:27;6.13;;;3.10;;
19830;SDS011;10076;52.008;4.708;2023-04-15T01:42:52;4.87;;;2.87;;
19830;SDS011;10076;52.008;4.708;2023-04-15T01:45:18;5.07;;;3.37;;
19830;SDS011;10076;52.008;4.708;2023-04-15T01:47:43;4.53;;;2.80;;
19830;SDS011;10076;52.008;4.708;2023-04-15T01:50:09;5.40;;;3.13;;
19830;SDS011;10076;52.008;4.708;2023-04-15T01:52:34;5.40;;;2.90;;
19830;SDS011;10076;52.008;4.708;2023-04-15T01:54:59;7.27;;;3.50;;
19830;SDS011;10076;52.008;4.708;2023-04-15T01:57:25;4.87;;;3.23;;
19830;SDS011;10076;52.008;4.708;2023-04-15T01:59:50;4.57;;;3.13;;
19830;SDS011;10076;52.008;4.708;2023-04-15T02:02:15;6.87;;;2.77;;
19830;SDS011;10076;52.008;4.708;2023-04-15T02:04:41;4.67;;;3.13;;
19830;SDS011;10076;52.008;4.708;2023-04-15T02:07:06;4.90;;;2.87;;
19830;SDS011;10076;52.008;4.708;2023-04-15T02:09:32;6.90;;;3.50;;
19830;SDS011;10076;52.008;4.708;2023-04-15T02:11:58;5.53;;;3.40;;
19830;SDS011;10076;52.008;4.708;2023-04-15T02:14:23;6.57;;;3.00;;
19830;SDS011;10076;52.008;4.708;2023-04-15T02:16:48;5.27;;;3.57;;
19830;SDS011;10076;52.008;4.708;2023-04-15T02:19:13;5.00;;;3.40;;
19830;SDS011;10076;52.008;4.708;2023-04-15T02:21:39;5.40;;;3.23;;
19830;SDS011;10076;52.008;4.708;2023-04-15T02:24:04;7.83;;;3.07;;
19830;SDS011;10076;52.008;4.708;2023-04-15T02:26:30;7.20;;;3.40;;
19830;SDS011;10076;52.008;4.708;2023-04-15T02:28:58;7.30;;;3.13;;
19830;SDS011;10076;52.008;4.708;2023-04-15T02:31:24;6.20;;;3.27;;
19830;SDS011;10076;52.008;4.708;2023-04-15T02:33:50;6.13;;;2.90;;
19830;SDS011;10076;52.008;4.708;2023-04-15T02:36:15;7.80;;;3.47;;
19830;SDS011;10076;52.008;4.708;2023-04-15T02:38:41;4.10;;;3.00;;
19830;SDS011;10076;52.008;4.708;2023-04-15T02:41:08;4.57;;;2.77;;
19830;SDS011;10076;52.008;4.708;2023-04-15T02:43:34;3.83;;;2.87;;
19830;SDS011;10076;52.008;4.708;2023-04-15T02:45:59;5.33;;;3.50;;
19830;SDS011;10076;52.008;4.708;2023-04-15T02:48:24;5.47;;;3.57;;
19830;SDS011;10076;52.008;4.708;2023-04-15T02:50:50;5.90;;;3.23;;
19830;SDS011;10076;52.008;4.708;2023-04-15T02:53:15;6.17;;;3.40;;
19830;SDS011;10076;52.008;4.708;2023-04-15T02:55:41;7.60;;;3.33;;
19830;SDS011;10076;52.008;4.708;2023-04-15T02:58:09;6.40;;;3.60;;
19830;SDS011;10076;52.008;4.708;2023-04-15T03:00:35;5.73;;;3.50;;
19830;SDS011;10076;52.008;4.708;2023-04-15T03:03:01;5.00;;;3.10;;
19830;SDS011;10076;52.008;4.708;2023-04-15T03:05:28;4.03;;;3.20;;
19830;SDS011;10076;52.008;4.708;2023-04-15T03:07:53;5.93;;;3.60;;
19830;SDS011;10076;52.008;4.708;2023-04-15T03:10:19;4.17;;;2.80;;
19830;SDS011;10076;52.008;4.708;2023-04-15T03:12:44;5.27;;;3.17;;
19830;SDS011;10076;52.008;4.708;2023-04-15T03:15:10;5.03;;;3.17;;
19830;SDS011;10076;52.008;4.708;2023-04-15T03:17:36;4.60;;;3.00;;
19830;SDS011;10076;52.008;4.708;2023-04-15T03:20:02;4.63;;;2.77;;
19830;SDS011;10076;52.008;4.708;2023-04-15T03:22:29;6.67;;;2.77;;
19830;SDS011;10076;52.008;4.708;2023-04-15T03:24:55;5.00;;;2.90;;
19830;SDS011;10076;52.008;4.708;2023-04-15T03:27:20;5.37;;;2.90;;
19830;SDS011;10076;52.008;4.708;2023-04-15T03:29:46;9.53;;;3.77;;
19830;SDS011;10076;52.008;4.708;2023-04-15T03:32:11;4.60;;;2.90;;
19830;SDS011;10076;52.008;4.708;2023-04-15T03:34:36;3.80;;;2.97;;
19830;SDS011;10076;52.008;4.708;2023-04-15T03:37:02;8.53;;;3.40;;
19830;SDS011;10076;52.008;4.708;2023-04-15T03:39:27;6.37;;;2.70;;
19830;SDS011;10076;52.008;4.708;2023-04-15T03:41:52;6.67;;;3.30;;
19830;SDS011;10076;52.008;4.708;2023-04-15T03:44:18;3.57;;;2.50;;
19830;SDS011;10076;52.008;4.708;2023-04-15T03:46:43;6.07;;;3.17;;
19830;SDS011;10076;52.008;4.708;2023-04-15T03:49:08;5.97;;;3.10;;
19830;SDS011;10076;52.008;4.708;2023-04-15T03:51:34;6.87;;;2.93;;
19830;SDS011;10076;52.008;4.708;2023-04-15T03:54:00;6.93;;;3.00;;
19830;SDS011;10076;52.008;4.708;2023-04-15T03:56:26;5.53;;;3.47;;
19830;SDS011;10076;52.008;4.708;2023-04-15T03:58:51;5.77;;;3.10;;
19830;SDS011;10076;52.008;4.708;2023-04-15T04:01:17;4.43;;;2.83;;
19830;SDS011;10076;52.008;4.708;2023-04-15T04:03:43;5.47;;;3.47;;
19830;SDS011;10076;52.008;4.708;2023-04-15T04:06:08;6.67;;;4.00;;
19830;SDS011;10076;52.008;4.708;2023-04-15T04:08:34;7.93;;;3.13;;
19830;SDS011;10076;52.008;4.708;2023-04-15T04:10:59;6.37;;;3.30;;
19830;SDS011;10076;52.008;4.708;2023-04-15T04:13:24;3.67;;;2.97;;
19830;SDS011;10076;52.008;4.708;2023-04-15T04:15:50;9.83;;;3.97;;
19830;SDS011;10076;52.008;4.708;2023-04-15T04:18:15;6.77;;;3.27;;
19830;SDS011;10076;52.008;4.708;2023-04-15T04:20:40;6.33;;;3.30;;
19830;SDS011;10076;52.008;4.708;2023-04-15T04:23:06;5.67;;;3.07;;
19830;SDS011;10076;52.008;4.708;2023-04-15T04:25:31;7.57;;;3.30;;
19830;SDS011;10076;52.008;4.708;2023-04-15T04:27:57;5.43;;;3.13;;
19830;SDS011;10076;52.008;4.708;2023-04-15T04:30:22;5.47;;;3.43;;
19830;SDS011;10076;52.008;4.708;2023-04-15T04:32:48;6.57;;;3.30;;
19830;SDS011;10076;52.008;4.708;2023-04-15T04:35:14;6.07;;;3.53;;
19830;SDS011;10076;52.008;4.708;2023-04-15T04:37:40;4.00;;;2.77;;
19830;SDS011;10076;52.008;4.708;2023-04-15T04:40:06;5.70;;;3.27;;
19830;SDS011;10076;52.008;4.708;2023-04-15T04:42:32;5.60;;;3.13;;
19830;SDS011;10076;52.008;4.708;2023-04-15T04:44:57;7.33;;;2.97;;
19830;SDS011;10076;52.008;4.708;2023-04-15T04:47:22;6.50;;;3.23;;
19830;SDS011;10076;52.008;4.708;2023-04-15T04:49:48;5.43;;;3.17;;
19830;SDS011;10076;52.008;4.708;2023-04-15T04:52:13;3.47;;;2.70;;
19830;SDS011;10076;52.008;4.708;2023-04-15T04:54:38;5.97;;;2.97;;
19830;SDS011;10076;52.008;4.708;2023-04-15T04:57:03;4.83;;;2.93;;
19830;SDS011;10076;52.008;4.708;2023-04-15T04:59:29;5.87;;;3.07;;
19830;SDS011;10076;52.008;4.708;2023-04-15T05:01:54;5.30;;;2.93;;
19830;SDS011;10076;52.008;4.708;2023-04-15T05:04:20;5.47;;;3.07;;
19830;SDS011;10076;52.008;4.708;2023-04-15T05:06:45;6.77;;;3.57;;
19830;SDS011;10076;52.008;4.708;2023-04-15T05:09:11;5.53;;;3.40;;
19830;SDS011;10076;52.008;4.708;2023-04-15T05:11:36;6.37;;;4.00;;
19830;SDS011;10076;52.008;4.708;2023-04-15T05:14:01;6.20;;;3.23;;
19830;SDS011;10076;52.008;4.708;2023-04-15T05:16:27;5.70;;;3.47;;
19830;SDS011;10076;52.008;4.708;2023-04-15T05:18:52;5.70;;;3.40;;
19830;SDS011;10076;52.008;4.708;2023-04-15T05:21:18;4.63;;;3.23;;
19830;SDS011;10076;52.008;4.708;2023-04-15T05:23:43;8.33;;;3.67;;
19830;SDS011;10076;52.008;4.708;2023-04-15T05:26:08;5.80;;;3.40;;
19830;SDS011;10076;52.008;4.708;2023-04-15T05:28:34;6.33;;;3.60;;
19830;SDS011;10076;52.008;4.708;2023-04-15T05:30:59;6.83;;;3.83;;
19830;SDS011;10076;52.008;4.708;2023-04-15T05:33:25;6.73;;;3.13;;
19830;SDS011;10076;52.008;4.708;2023-04-15T05:35:51;3.87;;;2.97;;
19830;SDS011;10076;52.008;4.708;2023-04-15T05:38:17;7.23;;;3.23;;
19830;SDS011;10076;52.008;4.708;2023-04-15T05:40:42;5.60;;;3.37;;
19830;SDS011;10076;52.008;4.708;2023-04-15T05:43:07;10.00;;;3.77;;
19830;SDS011;10076;52.008;4.708;2023-04-15T05:45:32;6.77;;;3.43;;
19830;SDS011;10076;52.008;4.708;2023-04-15T05:47:58;5.23;;;3.43;;
19830;SDS011;10076;52.008;4.708;2023-04-15T05:50:23;6.63;;;3.37;;
19830;SDS011;10076;52.008;4.708;2023-04-15T05:52:48;5.77;;;3.73;;
19830;SDS011;10076;52.008;4.708;2023-04-15T05:55:14;5.70;;;3.90;;
19830;SDS011;10076;52.008;4.708;2023-04-15T05:57:40;6.57;;;3.83;;
19830;SDS011;10076;52.008;4.708;2023-04-15T06:00:05;7.00;;;4.20;;
19830;SDS011;10076;52.008;4.708;2023-04-15T06:02:31;7.83;;;3.37;;
19830;SDS011;10076;52.008;4.708;2023-04-15T06:04:56;6.60;;;3.53;;
19830;SDS011;10076;52.008;4.708;2023-04-15T06:07:22;7.33;;;3.77;;
19830;SDS011;10076;52.008;4.708;2023-04-15T06:09:48;6.70;;;4.00;;
19830;SDS011;10076;52.008;4.708;2023-04-15T06:12:13;6.33;;;3.50;;
19830;SDS011;10076;52.008;4.708;2023-04-15T06:14:39;7.23;;;3.77;;
19830;SDS011;10076;52.008;4.708;2023-04-15T06:17:04;7.97;;;4.10;;
19830;SDS011;10076;52.008;4.708;2023-04-15T06:19:30;5.30;;;3.07;;
19830;SDS011;10076;52.008;4.708;2023-04-15T06:21:56;5.43;;;3.03;;
19830;SDS011;10076;52.008;4.708;2023-04-15T06:24:22;4.67;;;3.47;;
19830;SDS011;10076;52.008;4.708;2023-04-15T06:26:47;6.77;;;3.60;;
19830;SDS011;10076;52.008;4.708;2023-04-15T06:29:13;5.27;;;3.70;;
19830;SDS011;10076;52.008;4.708;2023-04-15T06:31:38;8.73;;;3.90;;
19830;SDS011;10076;52.008;4.708;2023-04-15T06:34:03;6.60;;;3.60;;
19830;SDS011;10076;52.008;4.708;2023-04-15T06:36:29;5.20;;;3.30;;
19830;SDS011;10076;52.008;4.708;2023-04-15T06:38:54;6.90;;;3.80;;
19830;SDS011;10076;52.008;4.708;2023-04-15T06:41:21;8.13;;;4.13;;
19830;SDS011;10076;52.008;4.708;2023-04-15T06:43:46;8.20;;;4.30;;
19830;SDS011;10076;52.008;4.708;2023-04-15T06:46:11;7.10;;;3.77;;
19830;SDS011;10076;52.008;4.708;2023-04-15T06:48:37;6.40;;;3.60;;
19830;SDS011;10076;52.008;4.708;2023-04-15T06:51:02;7.37;;;3.53;;
19830;SDS011;10076;52.008;4.708;2023-04-15T06:53:28;8.37;;;3.80;;
19830;SDS011;10076;52.008;4.708;2023-04-15T06:55:53;5.10;;;3.57;;
19830;SDS011;10076;52.008;4.708;2023-04-15T06:58:19;7.67;;;3.80;;
19830;SDS011;10076;52.008;4.708;2023-04-15T07:00:44;6.03;;;3.70;;
19830;SDS011;10076;52.008;4.708;2023-04-15T07:03:10;7.83;;;4.03;;
19830;SDS011;10076;52.008;4.708;2023-04-15T07:05:36;8.57;;;4.27;;
19830;SDS011;10076;52.008;4.708;2023-04-15T07:08:02;8.20;;;3.70;;
19830;SDS011;10076;52.008;4.708;2023-04-15T07:10:28;8.30;;;3.77;;
19830;SDS011;10076;52.008;4.708;2023-04-15T07:12:53;6.83;;;3.63;;
19830;SDS011;10076;52.008;4.708;2023-04-15T07:15:19;7.43;;;4.13;;
19830;SDS011;10076;52.008;4.708;2023-04-15T07:17:44;6.03;;;3.70;;
19830;SDS011;10076;52.008;4.708;2023-04-15T07:20:09;5.53;;;3.60;;
19830;SDS011;10076;52.008;4.708;2023-04-15T07:22:35;8.50;;;4.40;;
19830;SDS011;10076;52.008;4.708;2023-04-15T07:25:00;7.07;;;4.07;;
19830;SDS011;10076;52.008;4.708;2023-04-15T07:27:26;7.67;;;4.10;;
19830;SDS011;10076;52.008;4.708;2023-04-15T07:29:51;7.40;;;4.17;;
19830;SDS011;10076;52.008;4.708;2023-04-15T07:32:17;10.60;;;4.73;;
19830;SDS011;10076;52.008;4.708;2023-04-15T07:34:43;6.83;;;4.20;;
19830;SDS011;10076;52.008;4.708;2023-04-15T07:37:09;8.87;;;4.13;;
19830;SDS011;10076;52.008;4.708;2023-04-15T07:39:34;8.00;;;4.13;;
19830;SDS011;10076;52.008;4.708;2023-04-15T07:41:59;6.07;;;3.50;;
19830;SDS011;10076;52.008;4.708;2023-04-15T07:44:25;7.20;;;3.87;;
19830;SDS011;10076;52.008;4.708;2023-04-15T07:46:51;5.80;;;3.67;;
19830;SDS011;10076;52.008;4.708;2023-04-15T07:49:16;5.50;;;3.77;;
19830;SDS011;10076;52.008;4.708;2023-04-15T07:51:43;6.83;;;3.90;;
19830;SDS011;10076;52.008;4.708;2023-04-15T07:54:09;5.90;;;3.47;;
19830;SDS011;10076;52.008;4.708;2023-04-15T07:56:35;6.47;;;3.80;;
19830;SDS011;10076;52.008;4.708;2023-04-15T07:59:00;6.83;;;3.63;;
19830;SDS011;10076;52.008;4.708;2023-04-15T08:01:30;9.23;;;3.60;;
19830;SDS011;10076;52.008;4.708;2023-04-15T08:03:55;6.53;;;3.77;;
19830;SDS011;10076;52.008;4.708;2023-04-15T08:06:21;6.67;;;3.80;;
19830;SDS011;10076;52.008;4.708;2023-04-15T08:08:46;5.03;;;3.20;;
19830;SDS011;10076;52.008;4.708;2023-04-15T08:11:12;5.03;;;3.23;;
19830;SDS011;10076;52.008;4.708;2023-04-15T08:13:37;6.40;;;3.57;;
19830;SDS011;10076;52.008;4.708;2023-04-15T08:16:18;5.43;;;3.90;;
19830;SDS011;10076;52.008;4.708;2023-04-15T08:18:49;5.83;;;3.40;;
19830;SDS011;10076;52.008;4.708;2023-04-15T08:21:17;5.97;;;3.60;;
19830;SDS011;10076;52.008;4.708;2023-04-15T08:23:43;8.17;;;3.67;;
19830;SDS011;10076;52.008;4.708;2023-04-15T08:26:11;8.33;;;3.60;;
19830;SDS011;10076;52.008;4.708;2023-04-15T08:28:37;7.10;;;3.73;;
19830;SDS011;10076;52.008;4.708;2023-04-15T08:31:03;7.10;;;3.77;;
19830;SDS011;10076;52.008;4.708;2023-04-15T08:33:29;6.80;;;4.00;;
19830;SDS011;10076;52.008;4.708;2023-04-15T08:35:54;5.43;;;3.33;;
19830;SDS011;10076;52.008;4.708;2023-04-15T08:38:20;7.43;;;3.70;;
19830;SDS011;10076;52.008;4.708;2023-04-15T08:40:45;6.43;;;3.50;;
19830;SDS011;10076;52.008;4.708;2023-04-15T08:43:23;5.13;;;3.57;;
19830;SDS011;10076;52.008;4.708;2023-04-15T08:45:52;5.10;;;3.37;;
19830;SDS011;10076;52.008;4.708;2023-04-15T08:48:19;5.93;;;3.00;;
19830;SDS011;10076;52.008;4.708;2023-04-15T08:50:45;6.63;;;3.10;;
19830;SDS011;10076;52.008;4.708;2023-04-15T08:53:12;6.43;;;3.42;;
19830;SDS011;10076;52.008;4.708;2023-04-15T08:55:41;8.25;;;3.42;;
19830;SDS011;10076;52.008;4.708;2023-04-15T08:58:11;5.85;;;3.63;;
19830;SDS011;10076;52.008;4.708;2023-04-15T09:00:38;5.13;;;3.17;;
19830;SDS011;10076;52.008;4.708;2023-04-15T09:03:04;5.40;;;3.20;;
19830;SDS011;10076;52.008;4.708;2023-04-15T09:05:33;7.68;;;3.83;;
19830;SDS011;10076;52.008;4.708;2023-04-15T09:08:00;7.45;;;3.15;;
19830;SDS011;10076;52.008;4.708;2023-04-15T09:10:26;5.82;;;3.47;;
19830;SDS011;10076;52.008;4.708;2023-04-15T09:12:51;8.05;;;3.17;;
19830;SDS011;10076;52.008;4.708;2023-04-15T09:15:17;6.55;;;3.40;;
19830;SDS011;10076;52.008;4.708;2023-04-15T09:17:43;4.80;;;3.10;;
19830;SDS011;10076;52.008;4.708;2023-04-15T09:20:09;6.03;;;3.30;;
19830;SDS011;10076;52.008;4.708;2023-04-15T09:22:37;7.30;;;3.03;;
19830;SDS011;10076;52.008;4.708;2023-04-15T09:25:03;5.43;;;2.70;;
19830;SDS011;10076;52.008;4.708;2023-04-15T09:27:49;6.78;;;2.80;;
19830;SDS011;10076;52.008;4.708;2023-04-15T09:30:16;5.65;;;2.95;;
19830;SDS011;10076;52.008;4.708;2023-04-15T09:33:15;4.80;;;2.72;;
19830;SDS011;10076;52.008;4.708;2023-04-15T09:35:35;4.00;;;2.65;;
19830;SDS011;10076;52.008;4.708;2023-04-15T09:38:07;6.53;;;2.35;;
19830;SDS011;10076;52.008;4.708;2023-04-15T09:40:34;4.82;;;2.80;;
19830;SDS011;10076;52.008;4.708;2023-04-15T09:43:02;5.22;;;2.88;;
19830;SDS011;10076;52.008;4.708;2023-04-15T09:45:29;4.88;;;3.20;;
19830;SDS011;10076;52.008;4.708;2023-04-15T09:47:56;5.15;;;3.17;;
19830;SDS011;10076;52.008;4.708;2023-04-15T09:50:22;4.45;;;2.72;;
19830;SDS011;10076;52.008;4.708;2023-04-15T09:52:52;3.90;;;2.75;;
19830;SDS011;10076;52.008;4.708;2023-04-15T09:55:17;6.75;;;2.95;;
19830;SDS011;10076;52.008;4.708;2023-04-15T09:57:43;5.50;;;2.70;;
19830;SDS011;10076;52.008;4.708;2023-04-15T10:00:11;4.68;;;2.78;;
19830;SDS011;10076;52.008;4.708;2023-04-15T10:02:38;4.43;;;2.35;;
19830;SDS011;10076;52.008;4.708;2023-04-15T10:05:04;3.28;;;1.90;;
19830;SDS011;10076;52.008;4.708;2023-04-15T10:07:31;3.35;;;1.80;;
19830;SDS011;10076;52.008;4.708;2023-04-15T10:09:56;6.10;;;2.63;;
19830;SDS011;10076;52.008;4.708;2023-04-15T10:12:23;4.95;;;2.58;;
19830;SDS011;10076;52.008;4.708;2023-04-15T10:14:52;3.08;;;1.98;;
19830;SDS011;10076;52.008;4.708;2023-04-15T10:17:23;4.22;;;2.50;;
19830;SDS011;10076;52.008;4.708;2023-04-15T10:19:53;4.50;;;2.10;;
19830;SDS011;10076;52.008;4.708;2023-04-15T10:22:20;5.75;;;3.00;;
19830;SDS011;10076;52.008;4.708;2023-04-15T10:24:46;5.30;;;2.45;;
19830;SDS011;10076;52.008;4.708;2023-04-15T10:27:12;4.97;;;2.70;;
19830;SDS011;10076;52.008;4.708;2023-04-15T10:29:38;2.38;;;2.15;;
19830;SDS011;10076;52.008;4.708;2023-04-15T10:32:04;3.47;;;2.58;;
19830;SDS011;10076;52.008;4.708;2023-04-15T10:34:30;2.72;;;2.08;;
19830;SDS011;10076;52.008;4.708;2023-04-15T10:37:02;2.90;;;2.40;;
19830;SDS011;10076;52.008;4.708;2023-04-15T10:39:38;3.60;;;2.40;;
19830;SDS011;10076;52.008;4.708;2023-04-15T10:42:11;3.22;;;2.22;;
19830;SDS011;10076;52.008;4.708;2023-04-15T10:44:41;4.07;;;3.05;;
19830;SDS011;10076;52.008;4.708;2023-04-15T10:47:11;2.47;;;2.03;;
19830;SDS011;10076;52.008;4.708;2023-04-15T10:49:42;3.10;;;2.03;;
19830;SDS011;10076;52.008;4.708;2023-04-15T10:52:10;3.03;;;1.90;;
19830;SDS011;10076;52.008;4.708;2023-04-15T10:54:36;4.40;;;2.72;;
19830;SDS011;10076;52.008;4.708;2023-04-15T10:59:28;4.93;;;2.60;;
19830;SDS011;10076;52.008;4.708;2023-04-15T11:02:01;2.92;;;1.38;;
19830;SDS011;10076;52.008;4.708;2023-04-15T11:12:42;2.85;;;2.00;;
19830;SDS011;10076;52.008;4.708;2023-04-15T11:17:52;2.75;;;2.15;;
19830;SDS011;10076;52.008;4.708;2023-04-15T11:20:17;4.70;;;2.63;;
19830;SDS011;10076;52.008;4.708;2023-04-15T11:22:47;3.65;;;2.60;;
19830;SDS011;10076;52.008;4.708;2023-04-15T11:25:25;4.05;;;2.55;;
19830;SDS011;10076;52.008;4.708;2023-04-15T11:27:57;3.55;;;2.40;;
19830;SDS011;10076;52.008;4.708;2023-04-15T11:30:25;4.20;;;2.50;;
19830;SDS011;10076;52.008;4.708;2023-04-15T11:32:52;3.72;;;2.67;;
19830;SDS011;10076;52.008;4.708;2023-04-15T11:35:19;4.72;;;2.67;;
19830;SDS011;10076;52.008;4.708;2023-04-15T11:37:46;3.63;;;2.50;;
19830;SDS011;10076;52.008;4.708;2023-04-15T11:40:13;3.50;;;2.47;;
19830;SDS011;10076;52.008;4.708;2023-04-15T11:42:41;4.45;;;2.72;;
19830;SDS011;10076;52.008;4.708;2023-04-15T11:45:07;6.50;;;2.45;;
19830;SDS011;10076;52.008;4.708;2023-04-15T11:47:34;3.75;;;2.30;;
19830;SDS011;10076;52.008;4.708;2023-04-15T11:50:19;3.72;;;2.20;;
19830;SDS011;10076;52.008;4.708;2023-04-15T11:52:56;4.68;;;2.80;;
19830;SDS011;10076;52.008;4.708;2023-04-15T11:55:23;5.68;;;2.50;;
19830;SDS011;10076;52.008;4.708;2023-04-15T11:57:50;3.67;;;2.40;;
19830;SDS011;10076;52.008;4.708;2023-04-15T12:00:29;2.95;;;2.20;;
19830;SDS011;10076;52.008;4.708;2023-04-15T12:03:10;4.32;;;2.17;;
19830;SDS011;10076;52.008;4.708;2023-04-15T12:11:14;2.38;;;2.15;;
19830;SDS011;10076;52.008;4.708;2023-04-15T12:13:47;3.25;;;1.90;;
19830;SDS011;10076;52.008;4.708;2023-04-15T12:16:17;2.95;;;2.03;;
19830;SDS011;10076;52.008;4.708;2023-04-15T12:18:46;3.33;;;2.05;;
19830;SDS011;10076;52.008;4.708;2023-04-15T12:21:14;3.13;;;2.10;;
19830;SDS011;10076;52.008;4.708;2023-04-15T12:23:50;1.88;;;1.30;;
19830;SDS011;10076;52.008;4.708;2023-04-15T12:26:17;1.50;;;1.20;;
19830;SDS011;10076;52.008;4.708;2023-04-15T12:28:52;1.90;;;1.38;;
19830;SDS011;10076;52.008;4.708;2023-04-15T12:31:27;3.05;;;1.50;;
19830;SDS011;10076;52.008;4.708;2023-04-15T12:33:54;2.33;;;1.50;;
19830;SDS011;10076;52.008;4.708;2023-04-15T12:36:20;1.85;;;1.30;;
19830;SDS011;10076;52.008;4.708;2023-04-15T12:38:46;1.70;;;1.38;;
19830;SDS011;10076;52.008;4.708;2023-04-15T12:41:11;1.50;;;1.40;;
19830;SDS011;10076;52.008;4.708;2023-04-15T12:43:37;1.98;;;1.40;;
19830;SDS011;10076;52.008;4.708;2023-04-15T12:46:02;1.45;;;1.30;;
19830;SDS011;10076;52.008;4.708;2023-04-15T12:48:28;2.55;;;1.55;;
19830;SDS011;10076;52.008;4.708;2023-04-15T12:50:54;1.52;;;1.23;;
19830;SDS011;10076;52.008;4.708;2023-04-15T12:53:19;1.88;;;1.38;;
19830;SDS011;10076;52.008;4.708;2023-04-15T12:55:44;2.25;;;1.50;;
19830;SDS011;10076;52.008;4.708;2023-04-15T12:58:10;1.75;;;1.30;;
19830;SDS011;10076;52.008;4.708;2023-04-15T13:00:35;1.55;;;1.38;;
19830;SDS011;10076;52.008;4.708;2023-04-15T13:03:01;2.55;;;1.50;;
19830;SDS011;10076;52.008;4.708;2023-04-15T13:05:26;1.55;;;1.45;;
19830;SDS011;10076;52.008;4.708;2023-04-15T13:07:51;3.35;;;1.35;;
19830;SDS011;10076;52.008;4.708;2023-04-15T13:10:17;1.30;;;1.20;;
19830;SDS011;10076;52.008;4.708;2023-04-15T13:12:42;3.28;;;1.67;;
19830;SDS011;10076;52.008;4.708;2023-04-15T13:15:07;2.60;;;1.65;;
19830;SDS011;10076;52.008;4.708;2023-04-15T13:17:35;7.68;;;4.45;;
19830;SDS011;10076;52.008;4.708;2023-04-15T13:20:00;2.15;;;1.60;;
19830;SDS011;10076;52.008;4.708;2023-04-15T13:22:26;2.30;;;1.52;;
19830;SDS011;10076;52.008;4.708;2023-04-15T13:24:51;3.17;;;1.80;;
19830;SDS011;10076;52.008;4.708;2023-04-15T13:27:16;2.30;;;1.80;;
19830;SDS011;10076;52.008;4.708;2023-04-15T13:29:42;1.65;;;1.20;;
19830;SDS011;10076;52.008;4.708;2023-04-15T13:32:07;1.25;;;1.15;;
19830;SDS011;10076;52.008;4.708;2023-04-15T13:34:32;3.83;;;1.42;;
19830;SDS011;10076;52.008;4.708;2023-04-15T13:36:58;1.30;;;0.88;;
19830;SDS011;10076;52.008;4.708;2023-04-15T13:39:23;1.67;;;1.25;;
19830;SDS011;10076;52.008;4.708;2023-04-15T13:41:48;3.08;;;1.17;;
19830;SDS011;10076;52.008;4.708;2023-04-15T13:44:14;3.08;;;1.30;;
19830;SDS011;10076;52.008;4.708;2023-04-15T13:46:39;3.00;;;1.35;;
19830;SDS011;10076;52.008;4.708;2023-04-15T13:49:06;2.20;;;1.35;;
19830;SDS011;10076;52.008;4.708;2023-04-15T13:51:31;2.22;;;1.30;;
19830;SDS011;10076;52.008;4.708;2023-04-15T13:53:57;3.67;;;1.17;;
19830;SDS011;10076;52.008;4.708;2023-04-15T13:56:22;1.58;;;1.30;;
19830;SDS011;10076;52.008;4.708;2023-04-15T13:58:48;3.42;;;1.40;;
19830;SDS011;10076;52.008;4.708;2023-04-15T14:01:13;1.98;;;1.55;;
19830;SDS011;10076;52.008;4.708;2023-04-15T14:03:39;2.58;;;1.15;;
19830;SDS011;10076;52.008;4.708;2023-04-15T14:06:04;2.28;;;1.17;;
19830;SDS011;10076;52.008;4.708;2023-04-15T14:08:30;1.13;;;1.02;;
19830;SDS011;10076;52.008;4.708;2023-04-15T14:10:55;1.85;;;1.20;;
19830;SDS011;10076;52.008;4.708;2023-04-15T14:13:21;1.40;;;1.05;;
19830;SDS011;10076;52.008;4.708;2023-04-15T14:15:46;1.98;;;1.05;;
19830;SDS011;10076;52.008;4.708;2023-04-15T14:18:12;2.60;;;1.20;;
19830;SDS011;10076;52.008;4.708;2023-04-15T14:20:37;1.30;;;1.00;;
19830;SDS011;10076;52.008;4.708;2023-04-15T14:23:02;2.38;;;1.08;;
19830;SDS011;10076;52.008;4.708;2023-04-15T14:25:28;1.65;;;1.35;;
19830;SDS011;10076;52.008;4.708;2023-04-15T14:27:53;2.20;;;1.20;;
19830;SDS011;10076;52.008;4.708;2023-04-15T14:30:18;1.02;;;0.90;;
19830;SDS011;10076;52.008;4.708;2023-04-15T14:32:44;1.13;;;1.02;;
19830;SDS011;10076;52.008;4.708;2023-04-15T14:35:10;1.65;;;1.00;;
19830;SDS011;10076;52.008;4.708;2023-04-15T14:37:35;1.77;;;0.73;;
19830;SDS011;10076;52.008;4.708;2023-04-15T14:40:00;1.33;;;1.00;;
19830;SDS011;10076;52.008;4.708;2023-04-15T14:42:26;2.63;;;1.25;;
19830;SDS011;10076;52.008;4.708;2023-04-15T14:44:51;2.03;;;1.10;;
19830;SDS011;10076;52.008;4.708;2023-04-15T14:47:16;2.22;;;1.33;;
19830;SDS011;10076;52.008;4.708;2023-04-15T14:49:42;1.52;;;1.00;;
19830;SDS011;10076;52.008;4.708;2023-04-15T14:52:07;2.00;;;1.08;;
19830;SDS011;10076;52.008;4.708;2023-04-15T14:54:32;3.53;;;1.20;;
19830;SDS011;10076;52.008;4.708;2023-04-15T14:56:57;1.90;;;1.17;;
19830;SDS011;10076;52.008;4.708;2023-04-15T14:59:23;2.58;;;1.10;;
19830;SDS011;10076;52.008;4.708;2023-04-15T15:01:48;1.52;;;1.10;;